Time;durP1;ratioP1;P1;durP2;ratioP2;P2;SDS_P1;SDS_P2;PMS_P1;PMS_P2;Temp;Humidity;BMP_temperature;BMP_pressure;BME280_temperature;BME280_humidity;BME280_pressure;Samples;Min_cycle;Max_cycle;Signal;HPM_P1;HPM_P2
2022/09/12 00:01:25;;;;;;;2.65;1.92;;;;;;;23.24;49.99;94703.50;4998309;28;20037;-64
2022/09/12 00:04:16;;;;;;;2.60;2.10;;;;;;;23.83;50.09;94758.47;5006172;28;20095;-67
2022/09/12 00:07:40;;;;;;;3.25;2.40;;;;;;;23.82;49.70;94756.97;5005590;28;20030;-67
2022/09/12 00:10:32;;;;;;;2.67;2.10;;;;;;;23.86;49.56;94757.41;4925027;28;20133;-65
2022/09/12 00:17:01;;;;;;;2.35;1.98;;;;;;;23.70;50.14;94772.03;4983812;28;20646;-64
2022/09/12 00:19:46;;;;;;;3.90;2.50;;;;;;;23.64;50.38;94774.09;5001935;28;20084;-66
2022/09/12 00:22:49;;;;;;;4.10;2.20;;;;;;;23.59;50.16;94777.59;4979106;28;20392;-66
2022/09/12 00:25:37;;;;;;;3.85;2.38;;;;;;;23.66;49.52;94769.59;4999487;28;20065;-66
2022/09/12 00:31:52;;;;;;;2.80;2.38;;;;;;;23.64;49.60;94774.09;4993182;28;20321;-68
2022/09/12 00:35:02;;;;;;;3.70;2.28;;;;;;;23.68;49.37;94777.25;4997781;28;20559;-68
2022/09/12 00:39:59;;;;;;;2.67;2.33;;;;;;;23.20;49.90;94714.69;4978918;28;20061;-61
2022/09/12 00:42:25;;;;;;;4.95;2.50;;;;;;;23.58;49.95;94770.66;4997635;28;20121;-66
2022/09/12 00:44:50;;;;;;;4.10;2.30;;;;;;;23.50;49.84;94769.78;5000872;28;20045;-65
2022/09/12 00:47:28;;;;;;;2.90;2.30;;;;;;;23.55;49.83;94766.25;5002683;28;20053;-70
2022/09/12 00:50:23;;;;;;;5.30;2.47;;;;;;;23.53;49.26;94763.31;5003440;28;20026;-67
2022/09/12 00:52:51;;;;;;;2.58;2.22;;;;;;;23.41;49.95;94778.31;4985630;28;20062;-70
2022/09/12 00:55:27;;;;;;;2.40;2.20;;;;;;;23.39;49.44;94762.50;4969094;28;20049;-70
2022/09/12 00:57:56;;;;;;;2.40;2.20;;;;;;;23.51;49.03;94765.78;4975843;28;20030;-62
2022/09/12 01:00:23;;;;;;;2.55;2.08;;;;;;;23.32;49.90;94748.72;5002294;28;20145;-60
2022/09/12 01:02:54;;;;;;;3.97;2.08;;;;;;;23.30;49.57;94762.09;5002656;28;20038;-60
2022/09/12 01:05:20;;;;;;;2.60;2.17;;;;;;;23.34;49.53;94751.66;5002661;28;20029;-61
2022/09/12 01:07:48;;;;;;;3.45;2.33;;;;;;;23.08;49.34;94735.16;5003890;28;20026;-63
2022/09/12 01:10:14;;;;;;;4.10;2.30;;;;;;;22.72;49.02;94667.00;5002957;28;20038;-63
2022/09/12 01:12:40;;;;;;;2.38;2.15;;;;;;;23.30;49.29;94748.47;4974553;28;20045;-67
2022/09/12 01:15:06;;;;;;;2.45;1.95;;;;;;;23.18;49.09;94717.19;4984993;28;20038;-67
2022/09/12 01:17:47;;;;;;;2.20;1.80;;;;;;;22.87;48.73;94694.53;5008425;28;25466;-65
2022/09/12 01:42:55;;;;;;;2.33;1.58;;;;;;;22.88;48.79;94723.22;5055701;28;20189;-65
2022/09/12 01:45:20;;;;;;;2.30;1.80;;;;;;;23.14;48.61;94749.44;5041284;28;20049;-65
2022/09/12 01:47:49;;;;;;;1.98;1.73;;;;;;;22.47;48.21;94649.22;5026535;28;20426;-67
2022/09/12 01:50:20;;;;;;;2.90;1.90;;;;;;;22.79;48.64;94696.38;5026773;28;20092;-69
2022/09/12 01:52:58;;;;;;;2.28;1.75;;;;;;;23.07;48.27;94744.56;5006322;28;20600;-69
2022/09/12 01:55:54;;;;;;;2.40;1.67;;;;;;;23.14;48.35;94741.25;5017395;28;20679;-70
2022/09/12 01:58:28;;;;;;;2.28;1.60;;;;;;;23.01;48.41;94730.28;4992504;28;20128;-67
2022/09/12 02:01:29;;;;;;;2.25;1.75;;;;;;;23.05;48.43;94749.78;4984731;28;20037;-67
2022/09/12 02:04:07;;;;;;;2.38;1.58;;;;;;;22.93;48.29;94740.28;5019685;28;20579;-70
2022/09/12 02:07:26;;;;;;;2.03;1.70;;;;;;;23.05;48.28;94738.91;5016893;28;20064;-65
2022/09/12 02:10:09;;;;;;;3.25;1.70;;;;;;;23.01;48.13;94741.16;4998665;28;20050;-70
2022/09/12 02:12:49;;;;;;;2.40;1.50;;;;;;;23.02;47.90;94753.53;5008426;28;20509;-71
2022/09/12 02:15:15;;;;;;;;;;;;;;;23.10;47.61;94743.53;5001742;28;20042;-71
2022/09/12 02:17:42;;;;;;;3.42;1.48;;;;;;;23.05;48.10;94747.06;5049805;28;19921;-69
2022/09/12 02:20:18;;;;;;;2.78;1.48;;;;;;;23.01;48.06;94751.34;5018534;28;20022;-69
2022/09/12 02:22:44;;;;;;;3.08;1.80;;;;;;;22.97;48.00;94745.44;5027206;28;20045;-69
2022/09/12 02:25:10;;;;;;;2.42;1.63;;;;;;;23.04;47.94;94745.59;5019739;28;20395;-70
2022/09/12 02:27:44;;;;;;;2.17;1.50;;;;;;;22.96;47.66;94739.25;5018208;28;20042;-67
2022/09/12 02:30:13;;;;;;;3.15;1.45;;;;;;;22.66;47.90;94726.19;5000975;28;20029;-70
2022/09/12 02:32:50;;;;;;;2.13;1.50;;;;;;;22.88;47.93;94749.22;5014454;28;20026;-71
2022/09/12 02:35:24;;;;;;;2.50;1.48;;;;;;;22.94;47.65;94747.22;5017807;28;20042;-69
2022/09/12 02:37:56;;;;;;;2.50;1.25;;;;;;;22.88;47.50;94743.78;5018046;28;20030;-68
2022/09/12 02:40:21;;;;;;;1.52;1.23;;;;;;;22.91;47.81;94748.19;5017850;28;20132;-70
2022/09/12 02:42:48;;;;;;;1.85;1.40;;;;;;;22.85;47.45;94748.75;5032541;28;20046;-70
2022/09/12 02:45:13;;;;;;;1.58;1.20;;;;;;;22.85;47.50;94737.88;5039394;28;20030;-71
2022/09/12 02:47:47;;;;;;;1.65;1.45;;;;;;;22.54;47.55;94686.72;5007408;28;20075;-67
2022/09/12 02:50:13;;;;;;;2.03;1.40;;;;;;;22.31;47.73;94674.63;5008084;28;20021;-69
2022/09/12 02:52:39;;;;;;;1.70;1.35;;;;;;;22.83;47.04;94729.50;5028649;28;20034;-72
2022/09/12 02:55:05;;;;;;;1.75;1.30;;;;;;;22.93;47.01;94750.41;5007584;28;20141;-63
2022/09/12 02:57:31;;;;;;;1.85;1.13;;;;;;;22.84;47.68;94747.28;4999060;28;20439;-67
2022/09/12 02:59:58;;;;;;;2.33;1.20;;;;;;;22.33;47.06;94665.94;5012663;28;20034;-69
2022/09/12 03:02:26;;;;;;;3.35;1.60;;;;;;;22.86;47.15;94742.81;5009934;28;20029;-69
2022/09/12 03:04:55;;;;;;;2.00;1.27;;;;;;;22.85;47.27;94762.38;5007707;28;20041;-70
2022/09/12 03:07:27;;;;;;;1.40;0.95;;;;;;;22.90;47.21;94762.31;5008129;28;20107;-67
2022/09/12 03:10:07;;;;;;;3.13;1.20;;;;;;;22.72;47.02;94767.69;5025689;28;20030;-68
2022/09/12 03:13:01;;;;;;;2.08;1.20;;;;;;;22.38;47.09;94712.16;5008869;28;20029;-68
2022/09/12 03:15:45;;;;;;;2.22;1.58;;;;;;;22.80;47.07;94774.06;5010290;28;20045;-65
2022/09/12 03:18:48;;;;;;;1.73;1.30;;;;;;;22.71;47.31;94774.41;5024764;28;20080;-67
2022/09/12 03:21:44;;;;;;;2.33;1.17;;;;;;;22.78;47.33;94760.22;5024902;28;20214;-66
2022/09/12 03:24:11;;;;;;;1.73;1.30;;;;;;;22.81;47.04;94753.75;5006790;28;20033;-69
2022/09/12 03:26:49;;;;;;;2.38;1.20;;;;;;;22.71;47.75;94760.81;5009363;28;20048;-65
2022/09/12 03:29:15;;;;;;;2.92;1.35;;;;;;;22.71;47.19;94747.19;5013193;28;20037;-64
2022/09/12 03:31:51;;;;;;;2.92;1.60;;;;;;;22.73;47.37;94761.03;4999598;28;20050;-63
2022/09/12 03:34:17;;;;;;;2.60;1.25;;;;;;;22.60;47.07;94733.69;4984160;28;20056;-67
2022/09/12 03:36:43;;;;;;;3.05;1.23;;;;;;;22.52;47.78;94754.56;5004806;28;20057;-67
2022/09/12 03:39:08;;;;;;;2.67;1.40;;;;;;;21.90;47.44;94667.06;5009261;28;20536;-69
2022/09/12 03:41:34;;;;;;;1.95;1.40;;;;;;;22.74;47.53;94770.66;5027608;28;20037;-69
2022/09/12 03:43:59;;;;;;;2.47;1.40;;;;;;;22.74;47.54;94765.22;5034253;22;20058;-70
2022/09/12 03:46:24;;;;;;;1.90;1.13;;;;;;;22.50;47.90;94746.16;5017951;28;20100;-67
2022/09/12 03:48:50;;;;;;;2.25;1.30;;;;;;;22.74;47.43;94770.66;5022097;28;20052;-67
2022/09/12 03:51:15;;;;;;;2.00;1.35;;;;;;;22.81;47.08;94753.75;5024897;28;20049;-67
2022/09/12 03:53:41;;;;;;;2.03;1.27;;;;;;;22.81;47.57;94770.84;5033374;28;20399;-68
2022/09/12 03:56:08;;;;;;;1.60;1.25;;;;;;;22.74;47.55;94762.50;5034424;28;20041;-63
2022/09/12 03:58:35;;;;;;;2.33;1.23;;;;;;;22.25;47.93;94709.28;5031764;28;20064;-69
2022/09/12 04:01:05;;;;;;;2.25;1.30;;;;;;;22.55;47.94;94756.97;5033889;28;20061;-66
2022/09/12 04:03:31;;;;;;;1.80;1.40;;;;;;;22.70;47.24;94764.75;5039094;28;20036;-64
2022/09/12 04:05:57;;;;;;;2.10;1.10;;;;;;;21.94;47.82;94679.91;5045899;28;20501;-63
2022/09/12 04:08:22;;;;;;;3.20;1.25;;;;;;;22.58;47.49;94771.56;5046320;28;20028;-67
2022/09/12 04:10:48;;;;;;;2.47;1.30;;;;;;;22.42;47.52;94747.97;5015653;28;20033;-70
2022/09/12 04:13:13;;;;;;;1.92;1.63;;;;;;;22.46;47.98;94773.63;5024703;28;20041;-69
2022/09/12 04:15:39;;;;;;;2.25;1.30;;;;;;;22.13;47.89;94724.22;5028656;28;20509;-69
2022/09/12 04:18:04;;;;;;;4.10;1.70;;;;;;;22.41;47.85;94740.31;5029154;28;20682;-66
2022/09/12 04:20:30;;;;;;;1.70;1.30;;;;;;;22.19;47.88;94722.19;5026492;28;20233;-66
2022/09/12 04:22:55;;;;;;;2.72;1.70;;;;;;;22.60;47.80;94777.22;5025702;28;20041;-69
2022/09/12 04:25:21;;;;;;;2.50;1.50;;;;;;;22.50;47.84;94778.81;5025628;28;20496;-67
2022/09/12 04:27:46;;;;;;;1.90;1.70;;;;;;;22.43;48.17;94790.25;5023514;28;20044;-69
2022/09/12 04:30:12;;;;;;;2.03;1.60;;;;;;;22.25;48.09;94780.00;5026077;28;20045;-68
2022/09/12 04:32:37;;;;;;;2.95;1.50;;;;;;;22.58;48.04;94796.06;5023645;28;20026;-68
2022/09/12 04:35:03;;;;;;;1.95;1.75;;;;;;;22.27;48.26;94761.22;5007144;28;20026;-66
2022/09/12 04:37:29;;;;;;;3.45;1.95;;;;;;;22.49;47.93;94777.34;5019226;28;20120;-69
2022/09/12 04:39:56;;;;;;;3.40;1.77;;;;;;;22.20;48.01;94739.25;5008390;28;20422;-69
2022/09/12 04:42:22;;;;;;;3.17;2.20;;;;;;;22.52;48.25;94781.75;5017759;28;20046;-65
2022/09/12 04:44:48;;;;;;;2.88;2.20;;;;;;;21.48;47.61;94626.94;5024200;28;20030;-70
2022/09/12 04:47:13;;;;;;;3.30;1.90;;;;;;;22.56;47.90;94782.22;5022859;28;20680;-67
2022/09/12 04:49:39;;;;;;;2.38;1.95;;;;;;;22.15;47.94;94721.75;5024000;28;20486;-69
2022/09/12 04:52:04;;;;;;;3.28;2.10;;;;;;;22.38;47.63;94733.19;5022562;28;20034;-65
2022/09/12 04:54:30;;;;;;;2.97;2.22;;;;;;;22.45;47.87;94760.53;5029082;28;20128;-64
2022/09/12 04:56:55;;;;;;;5.47;2.33;;;;;;;22.50;47.89;94757.06;5036693;28;20053;-69
2022/09/12 04:59:21;;;;;;;2.55;1.75;;;;;;;22.62;47.88;94780.19;5043496;28;20028;-66
2022/09/12 05:01:47;;;;;;;2.55;1.80;;;;;;;22.73;47.89;94790.97;5024659;28;20145;-68
2022/09/12 05:04:12;;;;;;;3.25;2.20;;;;;;;22.63;48.20;94792.53;5020588;28;20069;-69
2022/09/12 05:06:39;;;;;;;3.58;2.35;;;;;;;22.68;48.09;94799.94;5019953;28;20499;-69
2022/09/12 05:09:05;;;;;;;3.22;2.17;;;;;;;22.52;47.91;94766.16;5022733;28;20037;-63
2022/09/12 05:11:32;;;;;;;4.45;2.00;;;;;;;22.49;48.06;94755.56;5021751;28;20026;-65
2022/09/12 05:13:58;;;;;;;3.42;2.17;;;;;;;22.60;47.70;94760.88;5036591;28;20068;-64
2022/09/12 05:16:24;;;;;;;2.50;1.85;;;;;;;22.33;47.46;94721.09;5022175;28;20144;-67
2022/09/12 05:18:50;;;;;;;3.58;2.00;;;;;;;22.79;47.09;94783.47;5018628;28;20037;-69
2022/09/12 05:21:18;;;;;;;4.10;2.10;;;;;;;22.65;47.87;94768.28;5021483;28;20823;-71
2022/09/12 05:23:43;;;;;;;5.10;2.22;;;;;;;22.64;47.68;94756.63;5019893;28;20032;-63
2022/09/12 05:26:14;;;;;;;3.78;2.42;;;;;;;22.63;47.52;94740.81;5038627;28;20049;-62
2022/09/12 05:28:39;;;;;;;3.47;2.15;;;;;;;22.78;47.76;94788.19;5006361;28;20417;-67
2022/09/12 05:31:10;;;;;;;4.32;2.50;;;;;;;22.95;50.89;94797.69;5042611;28;20051;-68
2022/09/12 05:33:36;;;;;;;3.08;2.15;;;;;;;23.02;49.36;94780.78;5036161;28;20041;-64
2022/09/12 05:36:02;;;;;;;71.18;47.08;;;;;;;23.06;48.11;94797.56;5029670;28;20048;-65
2022/09/12 05:38:28;;;;;;;53.80;35.28;;;;;;;22.67;48.45;94716.78;5029634;28;20030;-71
2022/09/12 05:41:14;;;;;;;35.40;22.90;;;;;;;23.18;49.39;94782.56;5025727;28;20405;-66
2022/09/12 05:43:41;;;;;;;26.83;18.35;;;;;;;23.16;49.99;94787.78;5024685;28;20128;-68
2022/09/12 05:46:16;;;;;;;19.85;13.10;;;;;;;22.96;47.80;94717.47;5032388;28;20045;-63
2022/09/12 05:48:43;;;;;;;15.10;9.52;;;;;;;23.02;47.57;94720.13;5023720;28;20029;-72
2022/09/12 05:51:18;;;;;;;10.63;6.82;;;;;;;23.45;47.29;94759.69;5020913;28;20120;-71
2022/09/12 05:53:44;;;;;;;9.75;5.85;;;;;;;23.57;46.83;94761.00;5026650;28;20108;-64
2022/09/12 05:56:11;;;;;;;9.00;5.05;;;;;;;23.60;47.76;94782.53;5040037;28;20025;-64
2022/09/12 05:58:38;;;;;;;5.88;4.07;;;;;;;23.83;46.77;94769.38;5043897;28;20098;-67
2022/09/12 06:01:09;;;;;;;6.72;3.50;;;;;;;23.78;46.83;94764.72;5028740;28;20017;-65
2022/09/12 06:03:38;;;;;;;5.57;3.50;;;;;;;23.39;46.67;94707.25;5023797;28;20029;-67
2022/09/12 06:06:04;;;;;;;4.32;3.20;;;;;;;23.97;46.49;94758.69;5028028;28;20174;-65
2022/09/12 06:08:31;;;;;;;4.35;3.13;;;;;;;23.82;46.93;94757.69;5040996;28;20028;-67
2022/09/12 06:11:03;;;;;;;5.22;3.10;;;;;;;24.01;47.39;94764.59;5041265;28;20503;-67
2022/09/12 06:13:33;;;;;;;5.22;2.90;;;;;;;23.92;48.14;94734.97;5042785;28;20071;-66
2022/09/12 06:16:09;;;;;;;6.63;3.00;;;;;;;23.69;47.07;94683.28;5032150;28;20040;-66
2022/09/12 06:18:35;;;;;;;5.18;2.70;;;;;;;24.20;47.03;94778.94;5038843;28;20027;-67
2022/09/12 06:21:03;;;;;;;5.25;2.42;;;;;;;24.11;46.55;94779.34;5042792;28;20036;-70
2022/09/12 06:23:29;;;;;;;4.57;2.80;;;;;;;24.21;46.19;94761.31;5054094;28;20055;-66
2022/09/12 06:25:54;;;;;;;7.25;2.90;;;;;;;23.45;46.47;94667.78;5050210;28;20433;-67
2022/09/12 06:28:20;;;;;;;6.90;2.80;;;;;;;23.86;46.35;94714.50;5045562;28;20041;-68
2022/09/12 06:30:45;;;;;;;5.07;2.72;;;;;;;24.45;46.37;94774.81;5046348;28;20111;-67
2022/09/12 06:33:11;;;;;;;4.25;2.63;;;;;;;24.55;46.34;94778.66;5034863;28;20160;-65
2022/09/12 06:35:37;;;;;;;4.63;2.63;;;;;;;24.51;45.65;94783.66;5036528;28;20045;-65
2022/09/12 06:38:03;;;;;;;3.35;2.63;;;;;;;24.57;45.63;94792.50;5043233;28;20044;-65
2022/09/12 06:40:28;;;;;;;4.35;2.83;;;;;;;24.04;45.52;94730.81;5042289;28;20041;-65
2022/09/12 06:42:54;;;;;;;5.18;2.78;;;;;;;24.65;45.15;94793.34;5043051;28;20512;-67
2022/09/12 06:45:19;;;;;;;3.38;2.90;;;;;;;24.67;45.13;94785.38;5046573;28;20119;-66
2022/09/12 06:47:45;;;;;;;2.70;2.50;;;;;;;24.50;45.00;94765.84;5056881;28;20045;-66
2022/09/12 06:50:11;;;;;;;5.18;2.58;;;;;;;24.85;44.45;94812.59;5052802;28;20044;-68
2022/09/12 06:52:36;;;;;;;3.47;2.85;;;;;;;24.50;44.64;94765.84;5051916;28;20040;-64
2022/09/12 06:55:02;;;;;;;3.33;2.70;;;;;;;24.73;45.09;94805.13;5054373;28;20020;-67
2022/09/12 06:57:30;;;;;;;3.85;2.88;;;;;;;24.18;44.41;94696.84;5029441;28;20014;-61
2022/09/12 06:59:55;;;;;;;3.40;2.63;;;;;;;24.92;43.84;94796.34;5047356;28;20567;-67
2022/09/12 07:02:21;;;;;;;3.42;2.50;;;;;;;24.90;43.95;94807.06;5036179;28;20048;-63
2022/09/12 07:04:48;;;;;;;3.00;2.70;;;;;;;24.92;43.77;94803.81;5043250;28;20044;-68
2022/09/12 07:07:14;;;;;;;3.72;3.05;;;;;;;24.12;44.29;94698.94;5045040;28;20244;-65
2022/09/12 07:09:39;;;;;;;4.18;3.13;;;;;;;24.82;43.88;94787.06;5047678;28;20493;-68
2022/09/12 07:12:05;;;;;;;4.13;2.85;;;;;;;24.82;43.61;94763.75;5053507;28;20084;-67
2022/09/12 07:14:31;;;;;;;3.50;2.70;;;;;;;24.69;43.98;94785.59;5061604;28;20039;-63
2022/09/12 07:16:56;;;;;;;3.53;2.55;;;;;;;25.13;43.47;94805.41;5063502;28;20501;-64
2022/09/12 07:19:23;;;;;;;4.60;3.15;;;;;;;25.17;43.67;94811.31;5045793;28;20502;-63
2022/09/12 07:21:49;;;;;;;3.97;2.97;;;;;;;25.20;43.32;94810.25;5034418;28;20040;-65
2022/09/12 07:24:14;;;;;;;3.13;2.80;;;;;;;25.03;42.83;94779.75;5044247;28;20025;-65
2022/09/12 07:26:40;;;;;;;3.20;2.80;;;;;;;25.23;42.27;94790.06;5042672;28;20535;-64
2022/09/12 07:29:06;;;;;;;3.85;3.45;;;;;;;24.91;42.03;94734.75;5042818;28;20036;-64
2022/09/12 07:31:31;;;;;;;4.60;3.20;;;;;;;25.39;42.34;94813.59;5045268;28;20072;-66
2022/09/12 07:33:57;;;;;;;3.33;3.03;;;;;;;24.61;42.85;94730.13;5038959;28;20028;-64
2022/09/12 07:36:24;;;;;;;3.63;3.33;;;;;;;25.18;42.28;94815.50;5045418;28;20024;-63
2022/09/12 07:38:55;;;;;;;3.92;3.35;;;;;;;25.02;42.41;94811.09;5038903;28;20195;-67
2022/09/12 07:41:25;;;;;;;5.53;3.42;;;;;;;25.28;41.51;94808.34;5036026;28;20817;-68
2022/09/12 07:43:55;;;;;;;;;;;;;;;25.29;41.72;94807.09;5039310;28;20508;-68
2022/09/12 07:46:21;;;;;;;4.87;4.20;;;;;;;25.29;41.68;94793.44;5064234;28;19920;-67
2022/09/12 07:48:53;;;;;;;4.93;3.78;;;;;;;25.07;41.74;94780.19;5052790;28;20020;-65
2022/09/12 07:51:19;;;;;;;4.07;3.65;;;;;;;25.37;41.69;94813.41;5055490;28;20032;-66
2022/09/12 07:53:44;;;;;;;4.15;3.67;;;;;;;25.19;41.92;94797.84;5055403;28;20039;-69
2022/09/12 07:56:10;;;;;;;4.43;3.88;;;;;;;25.40;41.60;94812.34;5054353;28;20044;-69
2022/09/12 07:58:36;;;;;;;4.30;3.75;;;;;;;25.23;41.10;94787.34;5055440;28;20075;-64
2022/09/12 08:01:22;;;;;;;4.13;3.72;;;;;;;25.41;40.72;94808.31;5033873;28;20029;-64
2022/09/12 08:03:48;;;;;;;3.78;3.33;;;;;;;25.16;40.26;94749.69;5028887;28;20494;-66
2022/09/12 08:06:15;;;;;;;3.72;3.42;;;;;;;25.40;40.39;94817.81;5033544;28;20108;-65
2022/09/12 08:08:41;;;;;;;3.90;3.50;;;;;;;25.52;40.39;94797.19;5044127;28;20072;-68
2022/09/12 08:11:08;;;;;;;3.58;3.28;;;;;;;25.17;40.06;94734.78;5048586;28;20086;-69
2022/09/12 08:13:34;;;;;;;4.88;3.25;;;;;;;25.00;40.21;94712.50;5059145;28;20061;-65
2022/09/12 08:16:05;;;;;;;3.45;3.13;;;;;;;25.29;40.48;94762.59;5060878;28;20040;-68
2022/09/12 08:18:31;;;;;;;4.05;3.40;;;;;;;25.45;40.55;94800.53;5056274;28;20040;-65
2022/09/12 08:21:11;;;;;;;5.50;3.80;;;;;;;25.64;41.17;94801.16;5056997;28;20090;-62
2022/09/12 08:23:36;;;;;;;3.50;3.20;;;;;;;25.37;42.44;94753.97;5048649;28;20114;-67
2022/09/12 08:26:02;;;;;;;5.10;3.10;;;;;;;25.40;41.53;94741.25;5024892;28;20498;-69
2022/09/12 08:28:29;;;;;;;4.28;2.80;;;;;;;25.36;41.44;94729.91;5038619;28;20123;-72
2022/09/12 08:30:59;;;;;;;4.82;2.88;;;;;;;25.54;40.60;94742.69;5046157;28;20028;-66
2022/09/12 08:33:30;;;;;;;3.30;2.53;;;;;;;25.70;40.96;94777.19;5042081;28;20028;-64
2022/09/12 08:36:04;;;;;;;3.15;2.65;;;;;;;25.61;40.94;94783.06;5037221;28;20032;-64
2022/09/12 08:38:29;;;;;;;5.97;3.28;;;;;;;25.55;41.37;94796.13;5022399;28;20451;-64
2022/09/12 08:41:01;;;;;;;5.43;2.90;;;;;;;25.04;41.32;94800.38;5030659;28;20021;-66
2022/09/12 08:43:52;;;;;;;7.50;2.60;;;;;;;25.26;41.24;94808.16;5049998;28;20106;-63
2022/09/12 08:46:21;;;;;;;5.05;2.30;;;;;;;25.28;40.50;94761.88;5037896;28;20081;-67
2022/09/12 08:48:47;;;;;;;4.15;2.70;;;;;;;25.60;40.48;94798.00;5006246;28;20030;-61
2022/09/12 08:51:14;;;;;;;5.20;2.55;;;;;;;25.67;40.31;94798.13;5032505;28;20036;-67
2022/09/12 08:53:40;;;;;;;2.95;2.40;;;;;;;25.67;40.35;94791.94;5022988;28;20257;-67
2022/09/12 08:56:07;;;;;;;6.55;2.30;;;;;;;25.53;40.30;94768.56;5020231;28;20064;-67
2022/09/12 08:58:35;;;;;;;3.55;2.47;;;;;;;24.87;40.34;94689.91;5023420;28;20041;-65
2022/09/12 09:01:01;;;;;;;7.95;3.10;;;;;;;25.69;40.51;94783.91;5005550;28;20021;-63
2022/09/12 09:03:29;;;;;;;4.75;3.10;;;;;;;25.93;39.94;94790.59;5025844;28;20156;-69
2022/09/12 09:06:01;;;;;;;4.32;2.90;;;;;;;24.98;40.65;94720.47;5027092;28;20033;-67
2022/09/12 09:08:32;;;;;;;5.70;3.20;;;;;;;25.71;39.81;94786.84;5041138;28;20129;-67
2022/09/12 09:11:04;;;;;;;4.82;2.90;;;;;;;25.38;40.75;94782.03;5020479;28;20042;-69
2022/09/12 09:16:30;;;;;;;5.05;3.10;;;;;;;25.75;40.45;94776.31;5035497;28;20114;-68
2022/09/12 09:19:02;;;;;;;3.40;3.10;;;;;;;25.62;40.29;94740.78;5047180;28;20025;-67
2022/09/12 09:21:31;;;;;;;4.55;3.17;;;;;;;25.79;40.64;94776.75;5053042;28;20040;-69
2022/09/12 09:24:05;;;;;;;3.92;2.97;;;;;;;25.31;40.10;94705.44;5018388;28;20498;-66
2022/09/12 09:27:09;;;;;;;3.70;3.05;;;;;;;25.64;39.75;94739.00;5020908;28;20049;-69
2022/09/12 09:29:44;;;;;;;3.22;2.92;;;;;;;26.04;39.48;94776.66;4997784;28;20134;-70
2022/09/12 09:32:16;;;;;;;3.03;2.65;;;;;;;25.79;39.55;94738.44;4997655;28;20053;-65
2022/09/12 09:34:42;;;;;;;3.88;3.08;;;;;;;25.95;39.63;94763.41;4997679;28;20044;-71
2022/09/12 09:37:12;;;;;;;3.92;3.00;;;;;;;26.03;39.38;94769.69;5019565;28;20502;-70
2022/09/12 09:40:01;;;;;;;3.42;3.13;;;;;;;26.24;39.22;94762.25;5043102;28;20048;-72
2022/09/12 09:42:39;;;;;;;4.43;3.10;;;;;;;26.32;38.99;94763.06;5033968;28;20056;-68
2022/09/12 09:45:15;;;;;;;3.40;3.10;;;;;;;25.99;38.94;94774.78;5004572;28;20041;-72
2022/09/12 09:47:43;;;;;;;3.65;2.97;;;;;;;26.01;38.76;94728.47;5021626;28;20033;-72
2022/09/12 09:50:13;;;;;;;4.25;3.10;;;;;;;26.12;38.78;94755.56;5023197;28;20037;-70
2022/09/12 09:52:38;;;;;;;3.92;3.33;;;;;;;25.98;39.18;94762.38;5021400;28;20509;-72
2022/09/12 09:55:04;;;;;;;3.30;3.00;;;;;;;25.98;38.98;94745.94;5026193;28;20025;-73
2022/09/12 09:57:39;;;;;;;3.10;2.80;;;;;;;26.20;38.71;94756.34;5061816;28;20397;-74
2022/09/12 10:00:27;;;;;;;4.47;3.00;;;;;;;26.20;38.84;94750.16;5052181;28;20056;-72
2022/09/12 10:03:07;;;;;;;3.10;2.67;;;;;;;26.33;38.83;94770.00;5025297;28;20041;-67
2022/09/12 10:05:43;;;;;;;3.50;3.20;;;;;;;25.99;38.45;94698.16;5025024;28;20052;-72
2022/09/12 10:08:09;;;;;;;3.13;2.83;;;;;;;26.43;38.50;94758.06;5024953;28;20038;-72
2022/09/12 10:10:35;;;;;;;4.43;2.90;;;;;;;25.74;38.36;94643.56;5017122;28;20080;-75
2022/09/12 10:13:08;;;;;;;3.35;2.75;;;;;;;26.46;38.54;94746.03;5023145;28;20490;-70
2022/09/12 10:15:34;;;;;;;4.22;2.70;;;;;;;26.59;37.96;94747.94;5024302;28;20072;-66
2022/09/12 10:18:01;;;;;;;4.00;3.22;;;;;;;26.34;38.24;94750.31;5025047;28;20604;-68
2022/09/12 10:20:43;;;;;;;4.10;3.05;;;;;;;26.40;38.14;94755.66;5039642;28;20536;-70
2022/09/12 10:23:18;;;;;;;4.38;2.92;;;;;;;26.56;37.92;94754.50;5032956;28;20168;-64
2022/09/12 10:25:47;;;;;;;3.78;3.38;;;;;;;26.18;38.26;94689.75;5023826;28;20444;-63
2022/09/12 10:28:26;;;;;;;5.30;3.55;;;;;;;26.38;38.30;94755.44;5025191;28;20045;-65
2022/09/12 10:30:52;;;;;;;4.32;3.90;;;;;;;25.86;37.97;94657.19;5025275;28;20034;-64
2022/09/12 10:33:17;;;;;;;3.80;3.30;;;;;;;26.45;38.20;94732.88;5009839;28;20055;-69
2022/09/12 10:35:46;;;;;;;4.53;3.50;;;;;;;25.89;38.50;94649.91;5026551;28;20033;-63
2022/09/12 10:38:27;;;;;;;4.05;3.53;;;;;;;26.68;38.57;94744.72;5029479;28;20045;-64
2022/09/12 10:41:11;;;;;;;4.13;3.72;;;;;;;26.70;38.12;94753.16;5046146;28;20029;-65
2022/09/12 10:43:41;;;;;;;5.20;3.88;;;;;;;26.80;38.05;94758.34;5046975;28;20095;-66
2022/09/12 10:46:18;;;;;;;4.00;3.63;;;;;;;26.93;37.31;94761.00;5054981;28;20033;-70
2022/09/12 10:48:48;;;;;;;4.30;3.40;;;;;;;26.75;37.07;94749.53;5042809;28;20490;-66
2022/09/12 10:51:23;;;;;;;4.03;3.63;;;;;;;26.80;36.65;94752.88;5054371;28;20037;-66
2022/09/12 10:53:48;;;;;;;4.68;3.38;;;;;;;26.40;36.42;94687.22;5046665;28;20052;-69
2022/09/12 10:56:25;;;;;;;4.63;3.38;;;;;;;26.59;36.43;94710.34;5022072;28;20045;-65
2022/09/12 10:58:50;;;;;;;4.47;4.00;;;;;;;26.87;36.53;94757.66;5006453;28;20098;-68
2022/09/12 11:01:31;;;;;;;4.07;3.60;;;;;;;26.68;36.50;94758.44;5032252;28;20045;-69
2022/09/12 11:04:27;;;;;;;3.97;3.67;;;;;;;26.41;36.99;94759.84;5029857;28;20039;-67
2022/09/12 11:07:30;;;;;;;3.83;3.40;;;;;;;26.66;36.86;94752.75;5039785;28;20087;-65
2022/09/12 11:10:25;;;;;;;4.70;4.03;;;;;;;26.54;37.25;94757.06;5024435;28;20111;-63
2022/09/12 11:13:15;;;;;;;4.97;3.97;;;;;;;26.50;37.15;94753.91;5023970;28;20528;-65
2022/09/12 11:16:11;;;;;;;5.25;3.95;;;;;;;26.67;36.96;94754.25;5011268;28;20038;-65
2022/09/12 11:19:05;;;;;;;4.53;3.97;;;;;;;26.71;36.59;94755.38;5041665;28;20556;-65
2022/09/12 11:21:46;;;;;;;5.45;4.10;;;;;;;26.57;36.63;94753.25;5027975;28;20053;-70
2022/09/12 11:24:25;;;;;;;4.80;3.55;;;;;;;26.77;36.36;94748.47;5048925;28;20037;-68
2022/09/12 11:27:03;;;;;;;4.20;3.80;;;;;;;26.89;36.58;94760.63;5009339;28;20099;-68
2022/09/12 11:29:45;;;;;;;5.57;4.50;;;;;;;26.90;36.68;94767.56;5026758;28;20049;-68
2022/09/12 11:32:35;;;;;;;4.80;4.38;;;;;;;26.73;36.68;94757.56;5027101;28;20063;-66
2022/09/12 11:35:26;;;;;;;4.18;3.78;;;;;;;26.58;36.48;94747.22;5039099;28;20049;-68
2022/09/12 11:38:10;;;;;;;4.35;3.95;;;;;;;26.41;36.87;94748.91;5026355;28;20056;-69
2022/09/12 11:40:54;;;;;;;5.60;4.35;;;;;;;26.76;35.95;94730.53;5035740;28;20755;-69
2022/09/12 11:43:59;;;;;;;6.47;4.20;;;;;;;26.66;36.97;94747.28;5047992;28;20041;-69
2022/09/12 11:46:36;;;;;;;4.60;4.15;;;;;;;26.91;36.94;94747.13;5045756;28;20042;-69
2022/09/12 11:49:08;;;;;;;7.25;4.18;;;;;;;26.90;36.64;94756.59;5009534;28;20040;-68
2022/09/12 11:51:59;;;;;;;4.75;4.35;;;;;;;26.98;36.90;94740.19;5024883;28;20472;-63
2022/09/12 11:54:36;;;;;;;4.97;4.50;;;;;;;26.89;36.53;94733.22;5045474;28;20037;-68
2022/09/12 11:57:11;;;;;;;4.65;4.25;;;;;;;26.72;36.70;94690.34;5050536;28;20118;-64
2022/09/12 11:59:50;;;;;;;4.38;3.97;;;;;;;26.67;37.27;94683.00;5034927;28;20300;-66
2022/09/12 12:02:35;;;;;;;5.27;4.07;;;;;;;26.67;37.54;94744.00;5045497;28;20041;-68
2022/09/12 12:05:19;;;;;;;4.25;3.85;;;;;;;26.93;36.94;94728.13;5050177;28;20081;-65
2022/09/12 12:07:55;;;;;;;4.30;3.90;;;;;;;27.25;37.06;94731.97;5043305;28;20106;-65
2022/09/12 12:10:43;;;;;;;4.05;3.72;;;;;;;27.31;36.90;94740.03;5031737;28;20110;-66
2022/09/12 12:13:16;;;;;;;4.13;3.72;;;;;;;27.28;36.88;94741.84;5039758;28;20052;-62
2022/09/12 12:16:06;;;;;;;4.20;3.50;;;;;;;26.85;36.19;94672.50;5019037;28;20112;-63
2022/09/12 12:18:32;;;;;;;4.35;3.40;;;;;;;26.70;36.42;94649.06;5020322;28;20049;-64
2022/09/12 12:21:30;;;;;;;4.28;3.88;;;;;;;27.18;36.22;94715.47;5038532;28;20051;-61
2022/09/12 12:24:09;;;;;;;4.30;3.42;;;;;;;27.33;36.67;94721.03;5042207;28;20072;-66
2022/09/12 12:26:37;;;;;;;4.18;3.30;;;;;;;27.48;36.89;94721.09;5013213;28;20081;-61
2022/09/12 12:29:03;;;;;;;3.60;3.30;;;;;;;27.43;36.83;94730.94;5017022;28;20525;-61
2022/09/12 12:31:29;;;;;;;3.35;3.05;;;;;;;26.76;36.57;94622.25;4999709;28;20037;-69
2022/09/12 12:34:00;;;;;;;3.95;2.80;;;;;;;26.82;38.07;94722.19;5023407;28;20923;-71